createdAt,value
2018-07-06T00:00:58.910Z,18.30
2018-07-06T00:03:39.584Z,18.20
2018-07-06T00:06:19.666Z,18.30
2018-07-06T00:08:59.604Z,18.20
2018-07-06T00:11:39.531Z,18.20
2018-07-06T00:14:19.324Z,18.20
2018-07-06T00:16:59.287Z,18.20
2018-07-06T00:19:39.275Z,18.20
2018-07-06T00:24:53.150Z,18.20
2018-07-06T00:27:32.889Z,18.20
2018-07-06T00:30:12.817Z,18.20
2018-07-06T00:32:52.780Z,18.20
2018-07-06T00:35:32.689Z,18.20
2018-07-06T00:38:12.486Z,18.30
2018-07-06T00:40:52.322Z,18.20
2018-07-06T00:43:32.212Z,18.30
2018-07-06T00:46:12.082Z,18.20
2018-07-06T00:48:52.089Z,18.20
2018-07-06T00:51:31.842Z,18.10
2018-07-06T00:54:12.038Z,18.10
2018-07-06T00:56:51.946Z,18.10
2018-07-06T00:59:31.959Z,18.10
2018-07-06T01:02:12.024Z,18.10
2018-07-06T01:04:51.885Z,18.10
2018-07-06T01:07:31.845Z,18.10
2018-07-06T01:10:11.922Z,18.10
2018-07-06T01:12:57.142Z,18.10
2018-07-06T01:15:37.492Z,18.10
2018-07-06T01:18:18.199Z,18.10
2018-07-06T01:20:58.122Z,18.10
2018-07-06T01:23:38.131Z,18.10
2018-07-06T01:26:18.622Z,18.00
2018-07-06T01:28:59.367Z,18.00
2018-07-06T01:31:39.306Z,18.00
2018-07-06T01:34:19.239Z,18.00
2018-07-06T01:36:58.969Z,18.00
2018-07-06T01:39:39.036Z,18.00
2018-07-06T01:42:19.065Z,18.00
2018-07-06T01:44:58.945Z,18.00
2018-07-06T01:47:38.889Z,18.00
2018-07-06T01:50:18.797Z,18.00
2018-07-06T01:52:58.903Z,18.00
2018-07-06T01:55:38.763Z,18.00
2018-07-06T01:58:18.453Z,17.90
2018-07-06T02:00:58.313Z,18.00
2018-07-06T02:03:38.104Z,18.00
2018-07-06T02:06:18.082Z,17.90
2018-07-06T02:08:58.093Z,18.00
2018-07-06T02:11:38.093Z,18.00
2018-07-06T02:14:18.035Z,18.00
2018-07-06T02:16:57.908Z,18.00
2018-07-06T02:19:37.866Z,18.10
2018-07-06T02:22:17.847Z,18.10
2018-07-06T02:24:57.679Z,18.00
2018-07-06T02:27:37.486Z,18.00
2018-07-06T02:30:17.437Z,18.00
2018-07-06T02:32:57.279Z,18.00
2018-07-06T02:35:37.279Z,17.90
2018-07-06T02:38:17.327Z,17.90
2018-07-06T02:40:57.179Z,17.90
2018-07-06T02:43:37.121Z,17.90
2018-07-06T02:46:17.058Z,17.90
2018-07-06T02:48:57.102Z,17.90
2018-07-06T02:51:37.083Z,17.90
2018-07-06T02:54:16.972Z,17.90
2018-07-06T02:56:56.887Z,17.90
2018-07-06T02:59:36.733Z,17.90
2018-07-06T03:02:16.639Z,17.90
2018-07-06T03:04:56.531Z,17.90
2018-07-06T03:07:36.607Z,17.90
2018-07-06T03:10:16.283Z,17.80
2018-07-06T03:12:55.981Z,17.80
2018-07-06T03:15:35.688Z,17.80
2018-07-06T03:18:15.866Z,17.80
2018-07-06T03:20:55.877Z,17.80
2018-07-06T03:23:35.905Z,17.80
2018-07-06T03:26:16.023Z,17.90
2018-07-06T03:28:55.765Z,17.80
2018-07-06T03:31:35.649Z,17.80
2018-07-06T03:34:15.801Z,17.80
2018-07-06T03:36:55.541Z,17.90
2018-07-06T03:42:09.369Z,17.80
2018-07-06T03:44:49.153Z,17.90
2018-07-06T03:47:29.269Z,17.90
2018-07-06T03:50:09.143Z,17.90
2018-07-06T03:52:49.162Z,17.90
2018-07-06T03:55:29.098Z,17.90
2018-07-06T03:58:09.053Z,17.90
2018-07-06T04:00:49.047Z,17.90
2018-07-06T04:03:29.039Z,17.90
2018-07-06T04:06:08.856Z,17.90
2018-07-06T04:08:48.534Z,17.90
2018-07-06T04:11:28.703Z,17.80
2018-07-06T04:14:08.770Z,17.80
2018-07-06T04:16:48.658Z,17.80
2018-07-06T04:19:28.714Z,17.80
2018-07-06T04:22:08.642Z,17.80
2018-07-06T04:24:48.611Z,17.80
2018-07-06T04:27:28.528Z,17.80
2018-07-06T04:30:08.498Z,17.80
2018-07-06T04:32:48.338Z,17.80
2018-07-06T04:35:28.282Z,17.80
2018-07-06T04:38:08.227Z,17.80
2018-07-06T04:40:48.201Z,17.80
2018-07-06T04:43:28.119Z,17.80
2018-07-06T04:46:08.038Z,17.80
2018-07-06T04:48:47.725Z,17.80
2018-07-06T04:51:27.520Z,17.80
2018-07-06T04:54:07.641Z,17.80
2018-07-06T04:56:47.967Z,17.80
2018-07-06T04:59:28.066Z,17.80
2018-07-06T05:02:07.964Z,17.80
2018-07-06T05:04:47.894Z,17.80
2018-07-06T05:07:27.669Z,17.80
2018-07-06T05:10:07.559Z,17.80
2018-07-06T05:12:47.441Z,17.80
2018-07-06T05:15:27.439Z,17.80
2018-07-06T05:18:07.421Z,17.80
2018-07-06T05:20:47.401Z,17.80
2018-07-06T05:23:27.314Z,17.80
2018-07-06T05:26:07.262Z,17.80
2018-07-06T05:28:47.279Z,17.80
2018-07-06T05:31:27.199Z,17.80
2018-07-06T05:34:07.020Z,17.80
2018-07-06T05:36:47.174Z,17.80
2018-07-06T05:39:27.216Z,17.80
2018-07-06T05:42:07.282Z,17.80
2018-07-06T05:44:47.204Z,17.80
2018-07-06T05:47:27.200Z,17.90
2018-07-06T05:50:07.187Z,17.90
2018-07-06T05:52:47.213Z,17.90
2018-07-06T05:55:26.991Z,18.00
2018-07-06T05:58:07.042Z,17.90
2018-07-06T06:00:46.989Z,17.90
2018-07-06T06:03:26.997Z,17.90
2018-07-06T06:06:06.759Z,17.90
2018-07-06T06:08:34.218Z,18.00
2018-07-06T06:11:02.906Z,17.90
2018-07-06T06:13:31.545Z,17.90
2018-07-06T06:16:00.224Z,17.90
2018-07-06T06:18:28.979Z,17.90
2018-07-06T06:20:57.686Z,17.90
2018-07-06T06:23:26.329Z,17.90
2018-07-06T06:25:54.956Z,17.90
2018-07-06T06:28:23.644Z,17.90
2018-07-06T06:30:52.456Z,18.00
2018-07-06T06:33:21.304Z,18.00
2018-07-06T06:35:50.099Z,18.00
2018-07-06T06:38:18.870Z,18.00
2018-07-06T06:40:47.619Z,18.00
2018-07-06T06:43:16.318Z,18.00
2018-07-06T06:45:45.007Z,18.00
2018-07-06T06:48:13.732Z,18.00
2018-07-06T06:50:42.509Z,18.00
2018-07-06T06:53:11.348Z,18.00
2018-07-06T06:55:40.056Z,18.00
2018-07-06T06:58:08.802Z,18.00
2018-07-06T07:00:37.639Z,18.10
2018-07-06T07:03:06.367Z,18.00
2018-07-06T07:05:35.118Z,18.10
2018-07-06T07:08:03.848Z,18.10
2018-07-06T07:10:32.687Z,18.10
2018-07-06T07:13:01.371Z,18.10
2018-07-06T07:15:30.081Z,18.10
2018-07-06T07:17:58.794Z,18.20
2018-07-06T07:20:27.462Z,18.10
2018-07-06T07:22:56.275Z,18.20
2018-07-06T07:25:24.978Z,18.20
2018-07-06T07:27:53.707Z,18.20
2018-07-06T07:30:22.440Z,18.20
2018-07-06T07:32:51.480Z,18.20
2018-07-06T07:35:20.356Z,18.30
2018-07-06T07:37:49.038Z,18.30
2018-07-06T07:40:17.770Z,18.20
2018-07-06T07:42:46.578Z,18.20
2018-07-06T07:45:15.564Z,18.20
2018-07-06T07:47:44.201Z,18.30
2018-07-06T07:50:12.870Z,18.30
2018-07-06T07:52:52.866Z,18.30
2018-07-06T07:55:21.918Z,18.30
2018-07-06T07:57:50.722Z,18.30
2018-07-06T08:00:19.424Z,18.30
2018-07-06T08:05:16.579Z,18.30
2018-07-06T08:07:45.394Z,18.20
2018-07-06T08:10:14.078Z,18.20
2018-07-06T08:12:47.637Z,18.20
2018-07-06T08:15:16.280Z,18.20
2018-07-06T08:17:44.937Z,18.30
2018-07-06T08:20:13.625Z,18.30
2018-07-06T08:22:42.203Z,18.30
2018-07-06T08:25:10.772Z,18.20
2018-07-06T08:27:39.451Z,18.20
2018-07-06T08:30:08.311Z,18.20
2018-07-06T08:32:37.078Z,18.20
2018-07-06T08:35:17.134Z,18.20
2018-07-06T08:37:57.412Z,18.20
2018-07-06T08:40:26.903Z,18.20
2018-07-06T08:42:57.009Z,18.20
2018-07-06T08:45:26.254Z,18.20
2018-07-06T08:47:55.170Z,18.20
2018-07-06T08:50:24.063Z,18.30
2018-07-06T08:52:53.693Z,18.30
2018-07-06T08:55:22.856Z,18.40
2018-07-06T08:57:52.974Z,18.40
2018-07-06T09:00:21.677Z,18.40
2018-07-06T09:02:50.502Z,18.40
2018-07-06T09:07:47.489Z,18.40
2018-07-06T09:10:16.233Z,18.40
2018-07-06T09:12:45.229Z,18.40
2018-07-06T09:15:13.995Z,18.40
2018-07-06T09:17:42.812Z,18.40
2018-07-06T09:20:11.888Z,18.40
2018-07-06T09:22:40.585Z,18.50
2018-07-06T09:25:09.425Z,18.50
2018-07-06T09:27:38.316Z,18.50
2018-07-06T09:30:06.976Z,18.60
2018-07-06T09:32:35.742Z,18.60
2018-07-06T09:35:04.798Z,18.70
2018-07-06T09:37:33.869Z,18.80
2018-07-06T09:40:02.742Z,18.80
2018-07-06T09:42:31.737Z,18.80
2018-07-06T09:45:00.525Z,18.80
2018-07-06T09:47:29.428Z,18.90
2018-07-06T09:49:58.315Z,18.90
2018-07-06T09:52:27.196Z,19.00
2018-07-06T09:54:56.092Z,19.00
2018-07-06T09:57:24.961Z,19.00
2018-07-06T09:59:53.632Z,19.00
2018-07-06T10:02:22.473Z,19.00
2018-07-06T10:04:51.250Z,19.10
2018-07-06T10:07:19.953Z,19.10
2018-07-06T10:09:48.912Z,19.10
2018-07-06T10:12:17.829Z,19.10
2018-07-06T10:14:46.936Z,19.10
2018-07-06T10:17:15.807Z,19.20
2018-07-06T10:19:44.626Z,19.20
2018-07-06T10:22:13.671Z,19.30
2018-07-06T10:24:42.495Z,19.30
2018-07-06T10:27:11.470Z,19.30
2018-07-06T10:29:54.651Z,19.40
2018-07-06T10:32:28.318Z,19.40
2018-07-06T10:34:57.568Z,19.40
2018-07-06T10:37:26.845Z,19.40
2018-07-06T10:39:55.870Z,19.40
2018-07-06T10:42:24.538Z,19.40
2018-07-06T10:44:53.494Z,19.40
2018-07-06T10:47:22.415Z,19.40
2018-07-06T10:49:51.465Z,19.40
2018-07-06T10:52:20.291Z,19.40
2018-07-06T10:54:48.971Z,19.50
2018-07-06T10:57:17.747Z,19.40
2018-07-06T10:59:46.783Z,19.40
2018-07-06T11:02:15.546Z,19.40
2018-07-06T11:04:44.418Z,19.40
2018-07-06T11:07:13.316Z,19.40
2018-07-06T11:09:42.273Z,19.50
2018-07-06T11:12:11.358Z,19.60
2018-07-06T11:14:40.077Z,19.60
2018-07-06T11:17:09.001Z,19.70
2018-07-06T11:19:37.714Z,19.70
2018-07-06T11:22:06.794Z,19.80
2018-07-06T11:24:35.641Z,19.80
2018-07-06T11:27:04.739Z,19.80
2018-07-06T11:29:33.660Z,19.90
2018-07-06T11:32:02.662Z,19.90
2018-07-06T11:34:31.703Z,19.90
2018-07-06T11:37:00.539Z,19.90
2018-07-06T11:39:29.282Z,19.90
2018-07-06T11:41:58.288Z,19.90
2018-07-06T11:44:27.066Z,20.00
2018-07-06T11:46:55.886Z,20.00
2018-07-06T11:49:24.968Z,20.00
2018-07-06T11:51:53.839Z,20.00
2018-07-06T11:54:22.867Z,20.00
2018-07-06T11:59:19.992Z,20.00
2018-07-06T12:01:48.881Z,19.90
2018-07-06T12:04:17.922Z,19.90
2018-07-06T12:06:46.630Z,19.90
2018-07-06T12:09:15.549Z,19.90
2018-07-06T12:11:44.454Z,19.90
2018-07-06T12:14:13.269Z,19.90
2018-07-06T12:16:42.034Z,19.90
2018-07-06T12:19:10.944Z,19.90
2018-07-06T12:21:39.622Z,19.90
2018-07-06T12:24:08.610Z,19.90
2018-07-06T12:26:37.341Z,19.90
2018-07-06T12:29:06.353Z,19.90
2018-07-06T12:31:34.949Z,19.90
2018-07-06T12:34:03.575Z,20.00
2018-07-06T12:36:32.255Z,20.00
2018-07-06T12:39:01.061Z,20.00
2018-07-06T12:41:29.666Z,20.00
2018-07-06T12:43:58.351Z,20.00
2018-07-06T12:46:27.216Z,20.10
2018-07-06T12:48:56.127Z,20.10
2018-07-06T12:51:24.810Z,20.10
2018-07-06T12:53:53.649Z,20.10
2018-07-06T12:56:22.571Z,20.10
2018-07-06T12:58:51.524Z,20.20
2018-07-06T13:01:20.358Z,20.20
2018-07-06T13:03:49.095Z,20.20
2018-07-06T13:06:18.118Z,20.20
2018-07-06T13:08:46.932Z,20.20
2018-07-06T13:11:15.630Z,20.20
2018-07-06T13:13:44.562Z,20.30
2018-07-06T13:16:13.295Z,20.30
2018-07-06T13:18:42.093Z,20.40
2018-07-06T13:21:11.125Z,20.30
2018-07-06T13:23:39.945Z,20.30
2018-07-06T13:26:08.885Z,20.40
2018-07-06T13:28:37.818Z,20.40
2018-07-06T13:31:06.877Z,20.40
2018-07-06T13:33:35.763Z,20.30
2018-07-06T13:36:04.575Z,20.30
2018-07-06T13:38:33.200Z,20.30
2018-07-06T13:41:01.926Z,20.30
2018-07-06T13:43:30.707Z,20.20
2018-07-06T13:46:00.618Z,20.20
2018-07-06T13:48:29.817Z,20.20
2018-07-06T13:50:58.843Z,20.20
2018-07-06T13:53:27.445Z,20.20
2018-07-06T13:55:56.210Z,20.10
2018-07-06T13:58:25.119Z,20.10
2018-07-06T14:00:54.047Z,20.10
2018-07-06T14:03:22.960Z,20.10
2018-07-06T14:05:51.862Z,20.10
2018-07-06T14:08:20.831Z,20.10
2018-07-06T14:10:49.744Z,20.10
2018-07-06T14:13:18.749Z,20.00
2018-07-06T14:15:47.606Z,20.00
2018-07-06T14:18:16.463Z,19.90
2018-07-06T14:20:45.226Z,19.90
2018-07-06T14:23:14.266Z,19.90
2018-07-06T14:25:42.922Z,19.80
2018-07-06T14:28:11.796Z,19.80
2018-07-06T14:30:40.893Z,19.80
2018-07-06T14:33:09.867Z,19.80
2018-07-06T14:35:38.732Z,19.80
2018-07-06T14:38:07.741Z,19.80
2018-07-06T14:40:36.553Z,19.80
2018-07-06T14:43:05.189Z,19.80
2018-07-06T14:45:34.026Z,19.80
2018-07-06T14:48:02.914Z,19.80
2018-07-06T14:50:31.670Z,19.80
2018-07-06T14:53:00.425Z,19.80
2018-07-06T14:55:29.026Z,19.80
2018-07-06T14:57:57.779Z,19.80
2018-07-06T15:00:26.741Z,19.70
2018-07-06T15:02:55.664Z,19.70
2018-07-06T15:05:24.409Z,19.70
2018-07-06T15:07:53.400Z,19.70
2018-07-06T15:10:22.302Z,19.70
2018-07-06T15:12:50.989Z,19.80
2018-07-06T15:15:19.786Z,19.80
2018-07-06T15:17:48.815Z,19.80
2018-07-06T15:20:17.774Z,19.80
2018-07-06T15:22:46.715Z,19.90
2018-07-06T15:25:15.453Z,20.00
2018-07-06T15:27:44.262Z,20.00
2018-07-06T15:30:12.971Z,20.00
2018-07-06T15:32:42.093Z,20.00
2018-07-06T15:35:11.249Z,20.00
2018-07-06T15:37:42.385Z,20.00
2018-07-06T15:40:12.365Z,19.90
2018-07-06T15:42:41.060Z,19.90
2018-07-06T15:45:09.761Z,19.90
2018-07-06T15:47:38.698Z,19.90
2018-07-06T15:50:07.702Z,19.90
2018-07-06T15:52:36.580Z,19.90
2018-07-06T15:55:05.457Z,19.90
2018-07-06T15:57:34.460Z,19.90
2018-07-06T16:00:03.595Z,19.90
2018-07-06T16:02:32.594Z,19.90
2018-07-06T16:05:01.739Z,19.90
2018-07-06T16:07:30.684Z,19.90
2018-07-06T16:10:00.069Z,20.00
2018-07-06T16:12:28.907Z,20.00
2018-07-06T16:14:57.619Z,20.00
2018-07-06T16:17:27.008Z,19.90
2018-07-06T16:19:55.951Z,20.00
2018-07-06T16:22:24.665Z,19.90
2018-07-06T16:24:53.468Z,19.90
2018-07-06T16:27:22.379Z,19.90
2018-07-06T16:29:51.208Z,19.90
2018-07-06T16:32:20.173Z,19.90
2018-07-06T16:34:49.051Z,19.90
2018-07-06T16:37:17.877Z,19.90
2018-07-06T16:39:46.719Z,19.90
2018-07-06T16:42:15.531Z,19.90
2018-07-06T16:44:44.390Z,19.90
2018-07-06T16:47:13.126Z,19.90
2018-07-06T16:49:41.795Z,19.90
2018-07-06T16:52:10.663Z,19.90
2018-07-06T16:54:39.561Z,19.90
2018-07-06T16:57:08.358Z,19.90
2018-07-06T16:59:37.253Z,19.90
2018-07-06T17:02:06.141Z,19.90
2018-07-06T17:09:32.007Z,19.90
2018-07-06T17:12:00.878Z,19.90
2018-07-06T17:14:29.596Z,19.90
2018-07-06T17:16:58.320Z,19.90
2018-07-06T17:19:27.050Z,19.90
2018-07-06T17:21:55.743Z,19.90
2018-07-06T17:24:24.520Z,19.90
2018-07-06T17:26:53.155Z,19.90
2018-07-06T17:29:22.091Z,19.90
2018-07-06T17:31:50.994Z,19.90
2018-07-06T17:34:19.801Z,20.00
2018-07-06T17:36:48.535Z,19.90
2018-07-06T17:39:17.391Z,20.00
2018-07-06T17:41:46.249Z,20.00
2018-07-06T17:44:16.072Z,19.90
2018-07-06T17:46:44.718Z,19.70
2018-07-06T17:49:13.554Z,19.50
2018-07-06T17:51:42.421Z,19.40
2018-07-06T17:54:11.343Z,19.30
2018-07-06T17:56:40.162Z,19.20
2018-07-06T17:59:09.484Z,19.10
2018-07-06T18:01:38.789Z,19.10
2018-07-06T18:04:07.970Z,19.10
2018-07-06T18:06:36.979Z,19.00
2018-07-06T18:09:06.519Z,19.00
2018-07-06T18:11:35.394Z,18.90
2018-07-06T18:14:04.163Z,18.90
2018-07-06T18:16:32.878Z,18.90
2018-07-06T18:19:01.687Z,18.90
2018-07-06T18:21:30.583Z,18.90
2018-07-06T18:23:59.255Z,18.90
2018-07-06T18:26:28.099Z,18.90
2018-07-06T18:28:57.012Z,18.90
2018-07-06T18:31:25.805Z,18.90
2018-07-06T18:33:54.752Z,18.90
2018-07-06T18:36:23.887Z,18.80
2018-07-06T18:38:53.170Z,18.70
2018-07-06T18:41:24.646Z,18.60
2018-07-06T18:43:54.270Z,18.60
2018-07-06T18:46:22.993Z,18.50
2018-07-06T18:48:54.698Z,18.50
2018-07-06T18:51:23.478Z,18.30
2018-07-06T18:53:52.158Z,18.30
2018-07-06T18:56:20.880Z,18.20
2018-07-06T18:58:49.609Z,18.20
2018-07-06T19:01:18.305Z,18.20
2018-07-06T19:03:47.106Z,18.20
2018-07-06T19:06:16.180Z,18.20
2018-07-06T19:08:45.441Z,18.20
2018-07-06T19:11:14.401Z,18.20
2018-07-06T19:13:43.649Z,18.10
2018-07-06T19:16:12.729Z,18.10
2018-07-06T19:18:41.815Z,18.10
2018-07-06T19:21:10.941Z,18.10
2018-07-06T19:23:39.962Z,18.20
2018-07-06T19:26:08.993Z,18.20
2018-07-06T19:28:37.717Z,18.20
2018-07-06T19:31:06.583Z,18.10
2018-07-06T19:33:35.385Z,18.10
2018-07-06T19:36:04.180Z,18.10
2018-07-06T19:38:33.149Z,18.20
2018-07-06T19:41:02.314Z,18.10
2018-07-06T19:43:31.403Z,18.20
2018-07-06T19:46:00.152Z,18.20
2018-07-06T19:48:29.148Z,18.20
2018-07-06T19:53:26.245Z,18.10
2018-07-06T19:55:55.189Z,18.20
2018-07-06T19:58:24.187Z,18.10
2018-07-06T20:00:53.075Z,18.10
2018-07-06T20:03:22.049Z,18.00
2018-07-06T20:05:51.263Z,18.00
2018-07-06T20:08:20.030Z,18.00
2018-07-06T20:10:49.053Z,18.00
2018-07-06T20:13:17.950Z,17.90
2018-07-06T20:15:46.646Z,17.90
2018-07-06T20:18:15.319Z,17.90
2018-07-06T20:20:44.051Z,17.90
2018-07-06T20:23:12.893Z,17.90
2018-07-06T20:25:41.750Z,17.90
2018-07-06T20:28:10.353Z,17.90
2018-07-06T20:30:39.494Z,17.90
2018-07-06T20:33:08.362Z,17.80
2018-07-06T20:35:37.050Z,17.80
2018-07-06T20:38:05.888Z,17.80
2018-07-06T20:40:34.653Z,17.70
2018-07-06T20:43:03.513Z,17.70
2018-07-06T20:45:32.447Z,17.70
2018-07-06T20:48:01.503Z,17.70
2018-07-06T20:50:30.624Z,17.70
2018-07-06T20:52:59.373Z,17.60
2018-07-06T20:55:28.066Z,17.60
2018-07-06T20:57:56.677Z,17.60
2018-07-06T21:00:25.367Z,17.60
2018-07-06T21:02:54.023Z,17.60
2018-07-06T21:05:22.746Z,17.50
2018-07-06T21:07:51.421Z,17.50
2018-07-06T21:10:23.797Z,17.50
2018-07-06T21:12:52.586Z,17.50
2018-07-06T21:15:21.270Z,17.50
2018-07-06T21:17:49.935Z,17.50
2018-07-06T21:20:18.628Z,17.50
2018-07-06T21:22:47.361Z,17.40
2018-07-06T21:25:16.025Z,17.50
2018-07-06T21:27:44.774Z,17.40
2018-07-06T21:30:13.528Z,17.40
2018-07-06T21:32:42.402Z,17.40
2018-07-06T21:35:10.741Z,17.40
2018-07-06T21:37:39.636Z,17.40
2018-07-06T21:40:08.561Z,17.40
2018-07-06T21:42:37.172Z,17.30
2018-07-06T21:45:06.130Z,17.40
2018-07-06T21:47:34.727Z,17.40
2018-07-06T21:50:03.354Z,17.40
2018-07-06T21:52:32.383Z,17.30
2018-07-06T21:55:01.139Z,17.30
2018-07-06T21:57:29.834Z,17.30
2018-07-06T21:59:58.923Z,17.40
2018-07-06T22:02:27.842Z,17.30
2018-07-06T22:04:56.483Z,17.30
2018-07-06T22:07:25.109Z,17.30
2018-07-06T22:09:53.893Z,17.30
2018-07-06T22:12:22.546Z,17.30
2018-07-06T22:14:51.283Z,17.30
2018-07-06T22:19:48.623Z,17.20
2018-07-06T22:22:17.654Z,17.30
2018-07-06T22:24:46.413Z,17.30
2018-07-06T22:27:15.423Z,17.30
2018-07-06T22:29:44.243Z,17.20
2018-07-06T22:32:12.975Z,17.20
2018-07-06T22:34:41.778Z,17.20
2018-07-06T22:37:10.841Z,17.20
2018-07-06T22:39:39.463Z,17.20
2018-07-06T22:42:08.415Z,17.10
2018-07-06T22:44:37.233Z,17.10
2018-07-06T22:47:06.247Z,17.10
2018-07-06T22:49:34.883Z,17.20
2018-07-06T22:52:03.743Z,17.20
2018-07-06T22:54:32.503Z,17.20
2018-07-06T22:57:01.538Z,17.20
2018-07-06T22:59:30.247Z,17.20
2018-07-06T23:01:58.901Z,17.10
2018-07-06T23:04:27.754Z,17.10
2018-07-06T23:06:56.691Z,17.10
2018-07-06T23:09:25.579Z,17.20
2018-07-06T23:11:54.273Z,17.10
2018-07-06T23:14:23.081Z,17.10
2018-07-06T23:16:52.045Z,17.10
2018-07-06T23:21:49.303Z,17.10
2018-07-06T23:24:18.105Z,17.10
2018-07-06T23:26:46.997Z,17.10
2018-07-06T23:29:15.913Z,17.00
2018-07-06T23:31:44.749Z,17.00
2018-07-06T23:34:13.623Z,17.00
2018-07-06T23:36:42.490Z,17.00
2018-07-06T23:39:11.101Z,17.00
2018-07-06T23:41:39.796Z,17.00
2018-07-06T23:44:08.511Z,17.00
2018-07-06T23:46:37.130Z,17.00
2018-07-06T23:49:06.163Z,17.00
2018-07-06T23:51:34.992Z,17.00
2018-07-06T23:54:03.865Z,17.00
2018-07-06T23:56:32.766Z,17.00
2018-07-06T23:59:01.679Z,16.90
